Time;durP1;ratioP1;P1;durP2;ratioP2;P2;SDS_P1;SDS_P2;PMS_P1;PMS_P2;Temp;Humidity;BMP_temperature;BMP_pressure;BME280_temperature;BME280_humidity;BME280_pressure;Samples;Min_cycle;Max_cycle;Signal;HPM_P1;HPM_P2
2022/06/28 00:00:13;;;;;;;;;;;;;;;;;;4965532;28;19928;-60
2022/06/28 00:02:39;;;;;;;;;;;;;;;;;;4967445;28;19996;-61
2022/06/28 00:05:06;;;;;;;;;;;;;;;;;;4968587;28;19924;-60
2022/06/28 00:07:34;;;;;;;;;;;;;;;;;;4967575;28;20389;-61
2022/06/28 00:09:59;;;;;;;;;;;;;;;;;;4972707;28;20016;-59
2022/06/28 00:12:25;;;;;;;;;;;;;;;;;;4967784;28;20496;-61
2022/06/28 00:17:37;;;;;;;;;;;;;;;;;;4964826;28;19921;-60
2022/06/28 00:20:03;;;;;;;;;;;;;;;;;;4968497;28;21107;-60
2022/06/28 00:22:30;;;;;;;;;;;;;;;;;;4969845;28;19917;-61
2022/06/28 00:24:56;;;;;;;;;;;;;;;;;;4967730;28;19928;-61
2022/06/28 00:27:22;;;;;;;;;;;;;;;;;;4962070;28;19925;-61
2022/06/28 00:29:49;;;;;;;;;;;;;;;;;;4962967;28;19926;-61
2022/06/28 00:32:17;;;;;;;;;;;;;;;;;;4964597;28;21843;-59
2022/06/28 00:34:42;;;;;;;;;;;;;;;;;;4966223;28;19922;-61
2022/06/28 00:37:07;;;;;;;;;;;;;;;;;;4967378;28;19932;-61
2022/06/28 00:39:33;;;;;;;;;;;;;;;;;;4969260;28;19925;-60
2022/06/28 00:41:59;;;;;;;;;;;;;;;;;;4968643;28;19961;-61
2022/06/28 00:44:26;;;;;;;;;;;;;;;;;;4968751;28;19921;-61
2022/06/28 00:46:52;;;;;;;;;;;;;;;;;;4968225;28;19941;-60
2022/06/28 00:49:20;;;;;;;;;;;;;;;;;;4963981;28;20354;-60
2022/06/28 00:51:45;;;;;;;;;;;;;;;;;;4977369;28;19925;-60
2022/06/28 00:54:13;;;;;;;;;;;;;;;;;;4968267;28;20428;-60
2022/06/28 00:56:38;;;;;;;;;;;;;;;;;;4964479;28;19959;-60
2022/06/28 00:59:04;;;;;;;;;;;;;;;;;;4968815;28;20436;-59
2022/06/28 01:01:29;;;;;;;;;;;;;;;;;;4965669;28;20049;-60
2022/06/28 01:03:54;;;;;;;;;;;;;;;;;;4969589;28;21472;-60
2022/06/28 01:06:19;;;;;;;;;;;;;;;;;;4967022;28;19952;-59
2022/06/28 01:08:45;;;;;;;;;;;;;;;;;;4967741;28;19926;-60
2022/06/28 01:11:22;;;;;;;;;;;;;;;;;;4969764;28;19922;-60
2022/06/28 01:13:48;;;;;;;;;;;;;;;;;;4963737;28;19921;-60
2022/06/28 01:16:13;;;;;;;;;;;;;;;;;;4965284;28;19929;-60
2022/06/28 01:18:39;;;;;;;;;;;;;;;;;;4964653;28;20051;-60
2022/06/28 01:21:04;;;;;;;;;;;;;;;;;;4970652;28;19925;-61
2022/06/28 01:23:32;;;;;;;;;;;;;;;;;;4965595;28;19976;-59
2022/06/28 01:26:00;;;;;;;;;;;;;;;;;;4972498;28;20008;-60
2022/06/28 01:28:30;;;;;;;;;;;;;;;;;;4966171;28;19948;-59
2022/06/28 01:30:55;;;;;;;;;;;;;;;;;;4972356;28;19941;-60
2022/06/28 01:33:23;;;;;;;;;;;;;;;;;;4969574;28;19967;-61
2022/06/28 01:35:48;;;;;;;;;;;;;;;;;;4952231;28;19992;-60
2022/06/28 01:38:13;;;;;;;;;;;;;;;;;;4969488;28;19922;-61
2022/06/28 01:40:45;;;;;;;;;;;;;;;;;;4968678;28;19969;-61
2022/06/28 01:43:11;;;;;;;;;;;;;;;;;;4968608;28;19918;-61
2022/06/28 01:45:39;;;;;;;;;;;;;;;;;;4969793;28;19925;-61
2022/06/28 01:48:04;;;;;;;;;;;;;;;;;;4969228;28;20219;-61
2022/06/28 01:50:29;;;;;;;;;;;;;;;;;;4968455;28;20568;-61
2022/06/28 01:52:57;;;;;;;;;;;;;;;;;;4969888;28;20836;-61
2022/06/28 01:55:27;;;;;;;;;;;;;;;;;;4970947;28;19947;-59
2022/06/28 01:57:52;;;;;;;;;;;;;;;;;;4964743;28;19921;-60
2022/06/28 02:00:20;;;;;;;;;;;;;;;;;;4967397;28;19933;-60
2022/06/28 02:02:45;;;;;;;;;;;;;;;;;;4966860;28;20015;-60
2022/06/28 02:05:10;;;;;;;;;;;;;;;;;;4966338;28;20370;-60
2022/06/28 02:07:36;;;;;;;;;;;;;;;;;;4968354;28;20016;-60
2022/06/28 02:10:04;;;;;;;;;;;;;;;;;;4967135;28;20372;-62
2022/06/28 02:12:34;;;;;;;;;;;;;;;;;;4967562;28;19921;-61
2022/06/28 02:15:04;;;;;;;;;;;;;;;;;;4968505;28;19922;-59
2022/06/28 02:17:34;;;;;;;;;;;;;;;;;;4970429;28;20516;-59
2022/06/28 02:20:02;;;;;;;;;;;;;;;;;;4951318;28;19925;-59
2022/06/28 02:22:28;;;;;;;;;;;;;;;;;;4971587;28;19917;-61
2022/06/28 02:24:53;;;;;;;;;;;;;;;;;;4950542;28;19929;-61
2022/06/28 02:27:18;;;;;;;;;;;;;;;;;;4970761;28;19927;-60
2022/06/28 02:29:44;;;;;;;;;;;;;;;;;;4971127;28;19925;-61
2022/06/28 02:32:11;;;;;;;;;;;;;;;;;;4970828;28;19917;-60
2022/06/28 02:42:38;;;;;;;;;;;;;;;;;;4969822;28;20004;-61
2022/06/28 02:45:06;;;;;;;;;;;;;;;;;;4969196;28;19992;-60
2022/06/28 02:47:34;;;;;;;;;;;;;;;;;;4971487;28;20914;-61
2022/06/28 02:50:01;;;;;;;;;;;;;;;;;;4973299;28;19921;-60
2022/06/28 02:52:27;;;;;;;;;;;;;;;;;;4970174;28;19928;-58
2022/06/28 02:54:55;;;;;;;;;;;;;;;;;;4966529;28;19922;-61
2022/06/28 02:57:21;;;;;;;;;;;;;;;;;;4970242;28;20444;-60
2022/06/28 02:59:49;;;;;;;;;;;;;;;;;;4970042;28;19925;-60
2022/06/28 03:02:14;;;;;;;;;;;;;;;;;;4970926;28;19926;-60
2022/06/28 03:04:42;;;;;;;;;;;;;;;;;;4972311;28;19918;-60
2022/06/28 03:07:08;;;;;;;;;;;;;;;;;;4968595;28;19926;-60
2022/06/28 03:09:35;;;;;;;;;;;;;;;;;;4971452;28;19922;-60
2022/06/28 03:12:05;;;;;;;;;;;;;;;;;;4969339;28;19921;-61
2022/06/28 03:14:30;;;;;;;;;;;;;;;;;;4958861;28;19978;-61
2022/06/28 03:17:00;;;;;;;;;;;;;;;;;;4974138;28;20013;-61
2022/06/28 03:19:28;;;;;;;;;;;;;;;;;;4971116;28;20377;-60
2022/06/28 03:21:53;;;;;;;;;;;;;;;;;;4966610;28;20121;-60
2022/06/28 03:24:23;;;;;;;;;;;;;;;;;;4971791;28;19921;-61
2022/06/28 03:26:54;;;;;;;;;;;;;;;;;;4969581;28;19946;-60
2022/06/28 03:29:22;;;;;;;;;;;;;;;;;;4971572;28;19922;-60
2022/06/28 03:31:52;;;;;;;;;;;;;;;;;;4970222;28;19918;-61
2022/06/28 03:34:22;;;;;;;;;;;;;;;;;;4970379;28;19953;-61
2022/06/28 03:36:48;;;;;;;;;;;;;;;;;;4976792;28;20962;-61
2022/06/28 03:39:13;;;;;;;;;;;;;;;;;;4975429;28;19932;-61
2022/06/28 03:41:41;;;;;;;;;;;;;;;;;;4978008;28;20715;-61
2022/06/28 03:44:09;;;;;;;;;;;;;;;;;;4959750;28;20543;-61
2022/06/28 03:46:37;;;;;;;;;;;;;;;;;;4972947;28;19933;-60
2022/06/28 03:49:04;;;;;;;;;;;;;;;;;;4968374;28;20052;-60
2022/06/28 03:51:29;;;;;;;;;;;;;;;;;;4968489;28;22349;-61
2022/06/28 03:53:55;;;;;;;;;;;;;;;;;;4967705;28;20052;-61
2022/06/28 03:56:22;;;;;;;;;;;;;;;;;;4953186;28;19929;-61
2022/06/28 03:58:47;;;;;;;;;;;;;;;;;;4953991;28;19918;-60
2022/06/28 04:01:13;;;;;;;;;;;;;;;;;;4965856;28;19933;-61
2022/06/28 04:03:41;;;;;;;;;;;;;;;;;;4965933;28;19995;-62
2022/06/28 04:06:06;;;;;;;;;;;;;;;;;;4968343;28;19979;-60
2022/06/28 04:08:32;;;;;;;;;;;;;;;;;;4968577;28;20905;-61
2022/06/28 04:11:18;;;;;;;;;;;;;;;;;;4968507;28;19921;-60
2022/06/28 04:13:48;;;;;;;;;;;;;;;;;;4957551;28;19921;-59
2022/06/28 04:16:13;;;;;;;;;;;;;;;;;;4966845;28;20009;-60
2022/06/28 04:18:38;;;;;;;;;;;;;;;;;;4967142;28;19921;-60
2022/06/28 04:21:04;;;;;;;;;;;;;;;;;;4984530;28;19957;-60
2022/06/28 04:23:30;;;;;;;;;;;;;;;;;;4985831;28;19924;-60
2022/06/28 04:25:57;;;;;;;;;;;;;;;;;;4970507;28;19928;-60
2022/06/28 04:28:23;;;;;;;;;;;;;;;;;;4966093;28;19936;-60
2022/06/28 04:30:50;;;;;;;;;;;;;;;;;;4972827;28;19926;-60
2022/06/28 04:33:16;;;;;;;;;;;;;;;;;;4976463;28;19977;-60
2022/06/28 04:35:42;;;;;;;;;;;;;;;;;;4973757;28;20980;-61
2022/06/28 04:38:07;;;;;;;;;;;;;;;;;;4966787;28;19921;-61
2022/06/28 04:40:32;;;;;;;;;;;;;;;;;;4972957;28;19921;-59
2022/06/28 04:43:02;;;;;;;;;;;;;;;;;;4974758;28;21957;-61
2022/06/28 04:45:27;;;;;;;;;;;;;;;;;;4976241;28;19925;-61
2022/06/28 04:47:53;;;;;;;;;;;;;;;;;;4975115;28;19940;-61
2022/06/28 04:50:21;;;;;;;;;;;;;;;;;;4972447;28;19922;-62
2022/06/28 04:52:49;;;;;;;;;;;;;;;;;;4969517;28;19921;-60
2022/06/28 04:55:16;;;;;;;;;;;;;;;;;;4974713;28;19917;-62
2022/06/28 04:57:42;;;;;;;;;;;;;;;;;;4971067;28;20936;-61
2022/06/28 05:00:07;;;;;;;;;;;;;;;;;;4961064;28;20288;-61
2022/06/28 05:02:36;;;;;;;;;;;;;;;;;;4974247;28;20011;-61
2022/06/28 05:05:04;;;;;;;;;;;;;;;;;;4975581;28;19928;-61
2022/06/28 05:07:35;;;;;;;;;;;;;;;;;;4950909;28;19925;-60
2022/06/28 05:10:00;;;;;;;;;;;;;;;;;;4970804;28;21908;-61
2022/06/28 05:12:26;;;;;;;;;;;;;;;;;;4968575;28;19917;-62
2022/06/28 05:14:51;;;;;;;;;;;;;;;;;;4984135;28;19926;-61
2022/06/28 05:17:16;;;;;;;;;;;;;;;;;;4975653;28;20075;-61
2022/06/28 05:19:44;;;;;;;;;;;;;;;;;;4967232;28;20412;-61
2022/06/28 05:22:10;;;;;;;;;;;;;;;;;;4971944;28;20012;-61
2022/06/28 05:24:38;;;;;;;;;;;;;;;;;;4971858;28;20012;-62
2022/06/28 05:27:05;;;;;;;;;;;;;;;;;;4967704;28;20670;-62
2022/06/28 05:29:35;;;;;;;;;;;;;;;;;;4967636;28;19925;-62
2022/06/28 05:32:03;;;;;;;;;;;;;;;;;;4969420;28;20068;-62
2022/06/28 05:34:29;;;;;;;;;;;;;;;;;;4971185;28;19976;-62
2022/06/28 05:36:57;;;;;;;;;;;;;;;;;;4972069;28;19961;-62
2022/06/28 05:39:25;;;;;;;;;;;;;;;;;;4966370;28;19921;-62
2022/06/28 05:41:50;;;;;;;;;;;;;;;;;;4964734;28;19957;-63
2022/06/28 05:44:16;;;;;;;;;;;;;;;;;;4980876;28;19925;-63
2022/06/28 05:46:44;;;;;;;;;;;;;;;;;;4969619;28;20581;-63
2022/06/28 05:49:12;;;;;;;;;;;;;;;;;;4942942;28;19922;-61
2022/06/28 05:51:37;;;;;;;;;;;;;;;;;;4974554;28;20416;-62
2022/06/28 05:54:02;;;;;;;;;;;;;;;;;;4967308;28;19969;-62
2022/06/28 05:56:27;;;;;;;;;;;;;;;;;;4963128;28;19984;-63
2022/06/28 05:58:55;;;;;;;;;;;;;;;;;;4974693;28;19937;-64
2022/06/28 06:01:22;;;;;;;;;;;;;;;;;;4974557;28;20041;-63
2022/06/28 06:03:48;;;;;;;;;;;;;;;;;;4977961;28;20036;-63
2022/06/28 06:06:13;;;;;;;;;;;;;;;;;;4973967;28;20454;-63
2022/06/28 06:08:43;;;;;;;;;;;;;;;;;;4974511;28;20619;-63
2022/06/28 06:11:11;;;;;;;;;;;;;;;;;;4972257;28;21821;-62
2022/06/28 06:13:41;;;;;;;;;;;;;;;;;;4974651;28;19935;-63
2022/06/28 06:16:09;;;;;;;;;;;;;;;;;;4976138;28;19956;-62
2022/06/28 06:18:34;;;;;;;;;;;;;;;;;;4976150;28;20025;-63
2022/06/28 06:21:00;;;;;;;;;;;;;;;;;;4974511;28;19922;-62
2022/06/28 06:23:26;;;;;;;;;;;;;;;;;;4951333;28;20015;-61
2022/06/28 06:25:51;;;;;;;;;;;;;;;;;;4974146;28;19922;-61
2022/06/28 06:28:17;;;;;;;;;;;;;;;;;;4971836;28;20022;-62
2022/06/28 06:30:43;;;;;;;;;;;;;;;;;;4974950;28;20502;-62
2022/06/28 06:33:10;;;;;;;;;;;;;;;;;;4976960;28;19925;-62
2022/06/28 06:35:36;;;;;;;;;;;;;;;;;;4978353;28;19972;-61
2022/06/28 06:38:01;;;;;;;;;;;;;;;;;;4969010;28;19917;-61
2022/06/28 06:40:27;;;;;;;;;;;;;;;;;;4972912;28;21649;-61
2022/06/28 06:42:52;;;;;;;;;;;;;;;;;;4971315;28;19922;-60
2022/06/28 06:45:17;;;;;;;;;;;;;;;;;;4973469;28;19925;-61
2022/06/28 06:47:43;;;;;;;;;;;;;;;;;;4970112;28;21113;-61
2022/06/28 06:50:08;;;;;;;;;;;;;;;;;;4971344;28;19976;-60
2022/06/28 06:52:34;;;;;;;;;;;;;;;;;;4973555;28;21623;-61
2022/06/28 06:55:00;;;;;;;;;;;;;;;;;;4974978;28;19918;-62
2022/06/28 06:57:25;;;;;;;;;;;;;;;;;;4970300;28;21599;-61
2022/06/28 06:59:50;;;;;;;;;;;;;;;;;;4970802;28;19917;-61
2022/06/28 07:02:18;;;;;;;;;;;;;;;;;;4971395;28;20056;-61
2022/06/28 07:04:46;;;;;;;;;;;;;;;;;;4976096;28;19932;-61
2022/06/28 07:07:13;;;;;;;;;;;;;;;;;;4970469;28;20029;-61
2022/06/28 07:09:39;;;;;;;;;;;;;;;;;;4968985;28;19930;-60
2022/06/28 07:12:07;;;;;;;;;;;;;;;;;;4954008;28;21193;-60
2022/06/28 07:14:35;;;;;;;;;;;;;;;;;;4963430;28;19933;-59
2022/06/28 07:17:05;;;;;;;;;;;;;;;;;;4962618;28;19953;-58
2022/06/28 07:19:30;;;;;;;;;;;;;;;;;;4966239;28;19921;-60
2022/06/28 07:21:58;;;;;;;;;;;;;;;;;;4968116;28;19933;-59
2022/06/28 07:24:26;;;;;;;;;;;;;;;;;;4954838;28;20003;-60
2022/06/28 07:26:53;;;;;;;;;;;;;;;;;;4968439;28;19933;-61
2022/06/28 07:29:18;;;;;;;;;;;;;;;;;;4970220;28;19928;-60
2022/06/28 07:31:44;;;;;;;;;;;;;;;;;;4972911;28;19918;-59
2022/06/28 07:34:14;;;;;;;;;;;;;;;;;;4978143;28;19921;-60
2022/06/28 07:36:43;;;;;;;;;;;;;;;;;;4971981;28;20285;-59
2022/06/28 07:39:09;;;;;;;;;;;;;;;;;;4969727;28;19972;-59
2022/06/28 07:41:34;;;;;;;;;;;;;;;;;;4972561;28;20900;-59
2022/06/28 07:43:59;;;;;;;;;;;;;;;;;;4971112;28;20037;-60
2022/06/28 07:46:25;;;;;;;;;;;;;;;;;;4967783;28;20024;-60
2022/06/28 07:48:50;;;;;;;;;;;;;;;;;;4969902;28;19928;-59
2022/06/28 07:54:01;;;;;;;;;;;;;;;;;;4970401;28;20037;-59
2022/06/28 07:56:29;;;;;;;;;;;;;;;;;;4972342;28;20003;-59
2022/06/28 07:58:56;;;;;;;;;;;;;;;;;;4971189;28;20297;-60
2022/06/28 08:01:22;;;;;;;;;;;;;;;;;;4953592;28;19965;-60
2022/06/28 08:03:47;;;;;;;;;;;;;;;;;;4965712;28;20004;-60
2022/06/28 08:06:12;;;;;;;;;;;;;;;;;;4971884;28;19922;-57
2022/06/28 08:08:38;;;;;;;;;;;;;;;;;;4973529;28;19921;-59
2022/06/28 08:11:06;;;;;;;;;;;;;;;;;;4974657;28;19932;-60
2022/06/28 08:13:34;;;;;;;;;;;;;;;;;;4966255;28;19922;-60
2022/06/28 08:16:01;;;;;;;;;;;;;;;;;;4965466;28;19928;-60
2022/06/28 08:18:27;;;;;;;;;;;;;;;;;;4969279;28;19917;-60
2022/06/28 08:20:52;;;;;;;;;;;;;;;;;;4966423;28;19925;-60
2022/06/28 08:23:17;;;;;;;;;;;;;;;;;;4965712;28;19965;-61
2022/06/28 08:25:43;;;;;;;;;;;;;;;;;;4967901;28;19921;-59
2022/06/28 08:28:11;;;;;;;;;;;;;;;;;;4967921;28;19925;-62
2022/06/28 08:30:39;;;;;;;;;;;;;;;;;;4969746;28;19917;-64
2022/06/28 08:33:04;;;;;;;;;;;;;;;;;;4972501;28;19928;-61
2022/06/28 08:35:29;;;;;;;;;;;;;;;;;;4953937;28;19917;-59
2022/06/28 08:37:57;;;;;;;;;;;;;;;;;;4970017;28;21915;-59
2022/06/28 08:40:25;;;;;;;;;;;;;;;;;;4973802;28;19949;-59
2022/06/28 08:42:53;;;;;;;;;;;;;;;;;;4976904;28;19924;-60
2022/06/28 08:45:21;;;;;;;;;;;;;;;;;;4971098;28;19932;-60
2022/06/28 08:47:48;;;;;;;;;;;;;;;;;;4970900;28;19925;-59
2022/06/28 08:50:14;;;;;;;;;;;;;;;;;;4972166;28;20313;-61
2022/06/28 08:52:42;;;;;;;;;;;;;;;;;;4975210;28;20068;-60
2022/06/28 08:55:07;;;;;;;;;;;;;;;;;;4975559;28;19985;-60
2022/06/28 08:57:35;;;;;;;;;;;;;;;;;;4973688;28;19922;-60
2022/06/28 09:00:06;;;;;;;;;;;;;;;;;;4973918;28;19927;-59
2022/06/28 09:02:33;;;;;;;;;;;;;;;;;;4970216;28;19917;-61
2022/06/28 09:05:01;;;;;;;;;;;;;;;;;;4972428;28;19924;-60
2022/06/28 09:07:29;;;;;;;;;;;;;;;;;;4973799;28;19930;-60
2022/06/28 09:09:55;;;;;;;;;;;;;;;;;;4962292;28;19924;-61
2022/06/28 09:12:21;;;;;;;;;;;;;;;;;;4974376;28;19965;-61
2022/06/28 09:14:46;;;;;;;;;;;;;;;;;;4974751;28;20446;-60
2022/06/28 09:17:11;;;;;;;;;;;;;;;;;;4971759;28;19952;-59
2022/06/28 09:19:41;;;;;;;;;;;;;;;;;;4974569;28;20893;-59
2022/06/28 09:22:09;;;;;;;;;;;;;;;;;;4973630;28;20048;-59
2022/06/28 09:24:34;;;;;;;;;;;;;;;;;;4973903;28;19922;-59
2022/06/28 09:26:59;;;;;;;;;;;;;;;;;;4976036;28;19976;-60
2022/06/28 09:29:24;;;;;;;;;;;;;;;;;;4975201;28;19952;-60
2022/06/28 09:31:50;;;;;;;;;;;;;;;;;;4974128;28;19918;-60
2022/06/28 09:34:16;;;;;;;;;;;;;;;;;;4973436;28;19921;-61
2022/06/28 09:36:42;;;;;;;;;;;;;;;;;;4973649;28;19922;-60
2022/06/28 09:39:12;;;;;;;;;;;;;;;;;;4970761;28;19926;-61
2022/06/28 09:41:37;;;;;;;;;;;;;;;;;;4957083;28;19987;-61
2022/06/28 09:44:07;;;;;;;;;;;;;;;;;;4972150;28;21997;-58
2022/06/28 09:46:32;;;;;;;;;;;;;;;;;;4970514;28;19996;-61
2022/06/28 09:49:00;;;;;;;;;;;;;;;;;;4970980;28;19925;-62
2022/06/28 09:51:26;;;;;;;;;;;;;;;;;;4971163;28;20340;-59
2022/06/28 09:53:54;;;;;;;;;;;;;;;;;;4972765;28;19949;-61
2022/06/28 09:56:21;;;;;;;;;;;;;;;;;;4968418;28;19926;-60
2022/06/28 09:58:48;;;;;;;;;;;;;;;;;;4971531;28;19930;-60
2022/06/28 10:01:14;;;;;;;;;;;;;;;;;;4974607;28;19932;-60
2022/06/28 10:03:41;;;;;;;;;;;;;;;;;;4961112;28;19921;-60
2022/06/28 10:06:07;;;;;;;;;;;;;;;;;;4974086;28;20012;-62
2022/06/28 10:08:32;;;;;;;;;;;;;;;;;;4973799;28;20970;-60
2022/06/28 10:10:57;;;;;;;;;;;;;;;;;;4971434;28;19932;-60
2022/06/28 10:16:08;;;;;;;;;;;;;;;;;;4973351;28;19925;-60
2022/06/28 10:18:34;;;;;;;;;;;;;;;;;;4973637;28;19969;-61
2022/06/28 10:21:00;;;;;;;;;;;;;;;;;;4974998;28;19921;-59
2022/06/28 10:23:25;;;;;;;;;;;;;;;;;;4957430;28;19961;-61
2022/06/28 10:25:51;;;;;;;;;;;;;;;;;;4974508;28;19922;-61
2022/06/28 10:28:16;;;;;;;;;;;;;;;;;;4976364;28;19964;-61
2022/06/28 10:30:42;;;;;;;;;;;;;;;;;;4972950;28;19940;-61
2022/06/28 10:33:09;;;;;;;;;;;;;;;;;;4957002;28;20612;-61
2022/06/28 10:35:34;;;;;;;;;;;;;;;;;;4968138;28;20565;-61
2022/06/28 10:38:00;;;;;;;;;;;;;;;;;;4971469;28;19926;-61
2022/06/28 10:40:25;;;;;;;;;;;;;;;;;;4956673;28;19921;-61
2022/06/28 10:42:56;;;;;;;;;;;;;;;;;;4977494;28;20016;-61
2022/06/28 10:45:21;;;;;;;;;;;;;;;;;;4977902;28;19925;-61
2022/06/28 10:47:49;;;;;;;;;;;;;;;;;;4975874;28;19925;-61
2022/06/28 10:50:15;;;;;;;;;;;;;;;;;;4977255;28;19976;-61
2022/06/28 10:52:40;;;;;;;;;;;;;;;;;;4981562;28;20836;-60
2022/06/28 10:55:05;;;;;;;;;;;;;;;;;;4963581;28;19921;-61
2022/06/28 10:57:31;;;;;;;;;;;;;;;;;;4978126;28;19992;-59
2022/06/28 10:59:56;;;;;;;;;;;;;;;;;;4976214;28;19922;-61
2022/06/28 11:02:22;;;;;;;;;;;;;;;;;;4973616;28;19971;-60
2022/06/28 11:04:47;;;;;;;;;;;;;;;;;;4978218;28;19918;-61
2022/06/28 11:07:15;;;;;;;;;;;;;;;;;;4960457;28;19921;-61
2022/06/28 11:09:40;;;;;;;;;;;;;;;;;;4977910;28;19932;-60
2022/06/28 11:12:05;;;;;;;;;;;;;;;;;;4976171;28;19921;-61
2022/06/28 11:14:31;;;;;;;;;;;;;;;;;;4975805;28;21070;-60
2022/06/28 11:16:57;;;;;;;;;;;;;;;;;;4979215;28;20088;-60
2022/06/28 11:19:22;;;;;;;;;;;;;;;;;;4975567;28;20036;-60
2022/06/28 11:21:47;;;;;;;;;;;;;;;;;;4974963;28;19972;-60
2022/06/28 11:24:13;;;;;;;;;;;;;;;;;;4978941;28;20424;-60
2022/06/28 11:29:23;;;;;;;;;;;;;;;;;;4976967;28;19948;-60
2022/06/28 11:31:51;;;;;;;;;;;;;;;;;;4977905;28;22072;-61
2022/06/28 11:34:16;;;;;;;;;;;;;;;;;;4977844;28;19924;-61
2022/06/28 11:36:41;;;;;;;;;;;;;;;;;;4974657;28;19944;-59
2022/06/28 11:39:09;;;;;;;;;;;;;;;;;;4974715;28;19930;-62
2022/06/28 11:41:35;;;;;;;;;;;;;;;;;;4974421;28;19929;-59
2022/06/28 11:44:03;;;;;;;;;;;;;;;;;;4973508;28;19918;-60
2022/06/28 11:46:28;;;;;;;;;;;;;;;;;;4978144;28;20024;-60
2022/06/28 11:48:55;;;;;;;;;;;;;;;;;;4975570;28;19917;-63
2022/06/28 11:51:20;;;;;;;;;;;;;;;;;;4976511;28;20406;-60
2022/06/28 11:53:50;;;;;;;;;;;;;;;;;;4976248;28;20004;-60
2022/06/28 11:56:15;;;;;;;;;;;;;;;;;;4974001;28;19917;-60
2022/06/28 11:58:40;;;;;;;;;;;;;;;;;;4973484;28;20015;-60
2022/06/28 12:01:06;;;;;;;;;;;;;;;;;;4963959;28;19921;-60
2022/06/28 12:03:31;;;;;;;;;;;;;;;;;;4977008;28;20006;-60
2022/06/28 12:06:03;;;;;;;;;;;;;;;;;;4975930;28;19922;-60
2022/06/28 12:08:30;;;;;;;;;;;;;;;;;;4972156;28;20778;-59
2022/06/28 12:10:57;;;;;;;;;;;;;;;;;;4972469;28;20235;-60
2022/06/28 12:13:23;;;;;;;;;;;;;;;;;;4978273;28;20013;-60
2022/06/28 12:15:50;;;;;;;;;;;;;;;;;;4974576;28;20649;-60
2022/06/28 12:18:20;;;;;;;;;;;;;;;;;;4977195;28;19934;-60
2022/06/28 12:20:50;;;;;;;;;;;;;;;;;;4976176;28;19921;-61
2022/06/28 12:23:16;;;;;;;;;;;;;;;;;;4973589;28;19921;-61
2022/06/28 12:25:41;;;;;;;;;;;;;;;;;;4955083;28;20637;-60
2022/06/28 12:28:06;;;;;;;;;;;;;;;;;;4976775;28;20382;-59
2022/06/28 12:30:31;;;;;;;;;;;;;;;;;;4968977;28;19919;-59
2022/06/28 12:32:58;;;;;;;;;;;;;;;;;;4972646;28;19922;-58
2022/06/28 12:35:23;;;;;;;;;;;;;;;;;;4957378;28;19917;-59
2022/06/28 12:37:50;;;;;;;;;;;;;;;;;;4974859;28;20430;-59
2022/06/28 12:40:15;;;;;;;;;;;;;;;;;;4974480;28;21809;-57
2022/06/28 12:42:40;;;;;;;;;;;;;;;;;;4969242;28;20024;-59
2022/06/28 12:45:10;;;;;;;;;;;;;;;;;;4971345;28;19929;-62
2022/06/28 12:47:36;;;;;;;;;;;;;;;;;;4975521;28;20484;-60
2022/06/28 12:50:05;;;;;;;;;;;;;;;;;;4975664;28;19933;-59
2022/06/28 12:52:30;;;;;;;;;;;;;;;;;;4958965;28;20416;-59
2022/06/28 12:54:58;;;;;;;;;;;;;;;;;;4974208;28;19918;-58
2022/06/28 12:57:24;;;;;;;;;;;;;;;;;;4972387;28;19936;-59
2022/06/28 12:59:51;;;;;;;;;;;;;;;;;;4970554;28;19926;-61
2022/06/28 13:02:19;;;;;;;;;;;;;;;;;;4972480;28;19922;-60
2022/06/28 13:04:47;;;;;;;;;;;;;;;;;;4975753;28;19921;-59
2022/06/28 13:07:12;;;;;;;;;;;;;;;;;;4972679;28;19929;-59
2022/06/28 13:09:38;;;;;;;;;;;;;;;;;;4968106;28;19926;-60
2022/06/28 13:12:04;;;;;;;;;;;;;;;;;;4973464;28;19947;-61
2022/06/28 13:14:29;;;;;;;;;;;;;;;;;;4972889;28;19921;-61
2022/06/28 13:16:56;;;;;;;;;;;;;;;;;;4970080;28;20392;-59
2022/06/28 13:19:25;;;;;;;;;;;;;;;;;;4971568;28;20571;-59
2022/06/28 13:21:50;;;;;;;;;;;;;;;;;;4973157;28;19968;-60
2022/06/28 13:24:16;;;;;;;;;;;;;;;;;;4971626;28;21824;-59
2022/06/28 13:26:42;;;;;;;;;;;;;;;;;;4973897;28;19944;-60
2022/06/28 13:29:07;;;;;;;;;;;;;;;;;;4943949;28;19917;-60
2022/06/28 13:31:36;;;;;;;;;;;;;;;;;;4959906;28;20108;-61
2022/06/28 13:34:01;;;;;;;;;;;;;;;;;;4972806;28;19917;-61
2022/06/28 13:36:28;;;;;;;;;;;;;;;;;;4970312;28;20543;-61
2022/06/28 13:38:56;;;;;;;;;;;;;;;;;;4966872;28;19926;-61
2022/06/28 13:41:22;;;;;;;;;;;;;;;;;;4971892;28;20939;-61
2022/06/28 13:43:47;;;;;;;;;;;;;;;;;;4972202;28;19921;-61
2022/06/28 13:46:12;;;;;;;;;;;;;;;;;;4975926;28;19933;-60
2022/06/28 13:48:38;;;;;;;;;;;;;;;;;;4969743;28;21852;-59
2022/06/28 13:51:04;;;;;;;;;;;;;;;;;;4976015;28;19924;-60
2022/06/28 13:53:31;;;;;;;;;;;;;;;;;;4969927;28;20041;-59
2022/06/28 13:55:57;;;;;;;;;;;;;;;;;;4971645;28;19988;-60
2022/06/28 13:58:22;;;;;;;;;;;;;;;;;;4974261;28;19961;-62
2022/06/28 14:00:50;;;;;;;;;;;;;;;;;;4975162;28;21997;-62
2022/06/28 14:03:15;;;;;;;;;;;;;;;;;;4964364;28;19925;-60
2022/06/28 14:05:43;;;;;;;;;;;;;;;;;;4973121;28;20356;-60
2022/06/28 14:08:09;;;;;;;;;;;;;;;;;;4965496;28;19918;-58
2022/06/28 14:10:37;;;;;;;;;;;;;;;;;;4974755;28;19922;-60
2022/06/28 14:13:04;;;;;;;;;;;;;;;;;;4970804;28;19924;-60
2022/06/28 14:15:32;;;;;;;;;;;;;;;;;;4974557;28;19948;-60
2022/06/28 14:17:58;;;;;;;;;;;;;;;;;;4973241;28;19925;-59
2022/06/28 14:20:24;;;;;;;;;;;;;;;;;;4978231;28;20021;-61
2022/06/28 14:22:51;;;;;;;;;;;;;;;;;;4977094;28;19918;-62
2022/06/28 14:25:17;;;;;;;;;;;;;;;;;;4978541;28;19925;-60
2022/06/28 14:27:42;;;;;;;;;;;;;;;;;;4977086;28;19957;-60
2022/06/28 14:30:08;;;;;;;;;;;;;;;;;;4974481;28;19933;-60
2022/06/28 14:32:34;;;;;;;;;;;;;;;;;;4980319;28;19960;-60
2022/06/28 14:34:59;;;;;;;;;;;;;;;;;;4974564;28;20407;-60
2022/06/28 14:37:24;;;;;;;;;;;;;;;;;;4975986;28;20028;-60
2022/06/28 14:39:50;;;;;;;;;;;;;;;;;;4976892;28;19925;-59
2022/06/28 14:42:15;;;;;;;;;;;;;;;;;;4975889;28;19922;-60
2022/06/28 14:44:42;;;;;;;;;;;;;;;;;;4977671;28;20000;-61
2022/06/28 14:47:10;;;;;;;;;;;;;;;;;;4976970;28;20361;-60
2022/06/28 14:49:38;;;;;;;;;;;;;;;;;;4961604;28;19922;-62
2022/06/28 14:52:04;;;;;;;;;;;;;;;;;;4977510;28;19971;-60
2022/06/28 14:54:31;;;;;;;;;;;;;;;;;;4977678;28;20715;-59
2022/06/28 14:56:59;;;;;;;;;;;;;;;;;;4960564;28;20015;-59
2022/06/28 14:59:26;;;;;;;;;;;;;;;;;;4978169;28;19922;-61
2022/06/28 15:01:52;;;;;;;;;;;;;;;;;;4975269;28;19984;-60
2022/06/28 15:04:20;;;;;;;;;;;;;;;;;;4979199;28;19926;-60
2022/06/28 15:06:47;;;;;;;;;;;;;;;;;;4977021;28;19921;-60
2022/06/28 15:09:13;;;;;;;;;;;;;;;;;;4977366;28;20535;-62
2022/06/28 15:11:43;;;;;;;;;;;;;;;;;;4977786;28;19918;-60
2022/06/28 15:14:08;;;;;;;;;;;;;;;;;;4977939;28;19929;-60
2022/06/28 15:16:34;;;;;;;;;;;;;;;;;;4976761;28;19917;-60
2022/06/28 15:18:59;;;;;;;;;;;;;;;;;;4959251;28;19926;-61
2022/06/28 15:32:20;;;;;;;;;;;;;;;;;;4960449;28;20741;-60
2022/06/28 15:34:49;;;;;;;;;;;;;;;;;;4976284;28;19921;-60
2022/06/28 15:37:14;;;;;;;;;;;;;;;;;;4976373;28;19980;-60
2022/06/28 15:42:30;;;;;;;;;;;;;;;;;;4959795;23;19990;-61
2022/06/28 15:44:56;;;;;;;;;;;;;;;;;;4907534;29;20597;-60
2022/06/28 15:47:21;;;;;;;;;;;;;;;;;;4906321;29;19923;-62
2022/06/28 15:49:47;;;;;;;;;;;;;;;;;;4907255;29;19923;-61
2022/06/28 15:52:15;;;;;;;;;;;;;;;;;;4924371;28;21553;-62
2022/06/28 15:54:41;;;;;;;;;;;;;;;;;;4899976;29;19978;-62
2022/06/28 15:57:08;;;;;;;;;;;;;;;;;;4903671;29;20585;-61
2022/06/28 15:59:34;;;;;;;;;;;;;;;;;;4923501;28;19927;-63
2022/06/28 16:02:08;;;;;;;;;;;;;;;;;;4908201;29;19967;-63
2022/06/28 16:04:34;;;;;;;;;;;;;;;;;;4903708;29;19926;-63
2022/06/28 16:07:02;;;;;;;;;;;;;;;;;;4901511;29;19919;-63
2022/06/28 16:09:29;;;;;;;;;;;;;;;;;;4901539;29;19918;-63
2022/06/28 16:14:39;;;;;;;;;;;;;;;;;;4886667;29;19941;-63
2022/06/28 16:17:05;;;;;;;;;;;;;;;;;;4884436;29;20417;-62
2022/06/28 16:19:32;;;;;;;;;;;;;;;;;;4889327;29;19951;-63
2022/06/28 16:21:58;;;;;;;;;;;;;;;;;;4890161;29;19922;-62
2022/06/28 16:24:26;;;;;;;;;;;;;;;;;;4916011;28;19927;-63
2022/06/28 16:26:51;;;;;;;;;;;;;;;;;;4883410;29;19966;-64
2022/06/28 16:29:19;;;;;;;;;;;;;;;;;;4886304;29;19918;-62
2022/06/28 16:31:44;;;;;;;;;;;;;;;;;;4884098;29;20034;-63
2022/06/28 16:34:09;;;;;;;;;;;;;;;;;;4888284;29;20066;-60
2022/06/28 16:36:37;;;;;;;;;;;;;;;;;;4918624;28;20017;-63
2022/06/28 16:39:02;;;;;;;;;;;;;;;;;;4918099;28;20896;-63
2022/06/28 16:41:28;;;;;;;;;;;;;;;;;;4889652;29;19946;-62
2022/06/28 16:43:53;;;;;;;;;;;;;;;;;;4918825;28;19922;-64
2022/06/28 16:46:18;;;;;;;;;;;;;;;;;;4886302;29;19961;-64
2022/06/28 16:48:46;;;;;;;;;;;;;;;;;;4888328;29;20021;-64
2022/06/28 16:51:11;;;;;;;;;;;;;;;;;;4922978;28;19919;-63
2022/06/28 16:53:39;;;;;;;;;;;;;;;;;;4889923;29;19923;-64
2022/06/28 16:56:06;;;;;;;;;;;;;;;;;;4886689;29;19923;-64
2022/06/28 16:58:31;;;;;;;;;;;;;;;;;;4880513;29;19934;-64
2022/06/28 17:00:57;;;;;;;;;;;;;;;;;;4885648;29;19962;-64
2022/06/28 17:03:41;;;;;;;;;;;;;;;;;;4919687;28;19919;-65
2022/06/28 17:07:20;;;;;;;;;;;;;;;;;;4918678;28;19927;-62
2022/06/28 17:09:23;;;;;;;;;;;;;;;;;;4925860;28;19933;-65
2022/06/28 17:15:05;;;;;;;;;;;;;;;;;;4927863;28;20453;-64
2022/06/28 17:17:32;;;;;;;;;;;;;;;;;;4912912;28;19925;-64
2022/06/28 17:19:57;;;;;;;;;;;;;;;;;;4898031;28;21938;-64